Ana Sayfa
METAR-TAF:

METAR-TAF

Havaalanları :

Ithaca, New York, Amerika Birleşik Devletleri

Enlem: 42-29N, Boylam: 076-27W, yükseklik: 335 m

Güncel hava durumu gözlemi

Rapor saat 00:55 UTC de 8 saat ve 29 dakika önce yapıldı.
Rüzgar doğudan 4 kt
Sıcaklık 5°C
Nem 93%
Basınç 1016 hPa
Görüş mesafesi: 16.1 km
Açık gökyüzü

METAR: KITH 200055Z 10004KT 10SM CLR 05/04 A2999

Saat: 05:24 (09:24 UTC)

Tahmin

Rapor saat 08:35 UTC de 49 dakika önce yapıldı.
Ayın 20'si saat 09 UTC'den ayın 21'si saat 06 UTC'ye kadar geçerli Tahmin
Rüzgar değişken yönden 4 kt
Görüş mesafesi: 10 km
25000 ft yükseklikte parçalı bulutlu
Ayın 20'si saat 1000 UTC'den
Rüzgar güney/güneydoğudan 5 kt
Görüş mesafesi: 10 km
25000 ft yükseklikte parçalı çok bulutlu
Ayın 20'si saat 1900 UTC'den
Rüzgar güneydan 6 kt
Görüş mesafesi: 10 km
25000 ft yükseklikte parçalı bulutlu

TAF: KITH 200835Z 2009/2106 VRB04KT P6SM SCT250 FM201000 15005KT P6SM BKN250 FM201900 18006KT P6SM SCT250

4.000'den fazla havaalanı için hava durumu gözlemleri ve tahminleri (METAR ve TAF raporları).

Kullanılabilir istasyonlar harita üzerinde sarı ve kırmızı noktalarla gösterilir.

İstasyonun adını görmek için fareyi noktanın üzerinde gezdirin.

Sonrasında hava gözlem ve tahminlerini görmek için tıklayın.

Haritayı değiştirmek için: yaklaştırmak için siyah artı işaretli yeşil düğmeye ve uzaklaştırmak için de eksi işaretli düğmeye hızla tıklayın; bitişik haritalar için yeşil okları kullanın.


METAR-TAF: